Time;durP1;ratioP1;P1;durP2;ratioP2;P2;SDS_P1;SDS_P2;PMS_P1;PMS_P2;Temp;Humidity;BMP_temperature;BMP_pressure;BME280_temperature;BME280_humidity;BME280_pressure;Samples;Min_cycle;Max_cycle;Signal;HPM_P1;HPM_P2
2024/01/29 00:01:19;;;;;;;11.80;7.85;;;;;;;6.98;59.32;102390.31;5011120;28;20469;-59
2024/01/29 00:03:45;;;;;;;8.43;7.38;;;;;;;6.97;59.24;102395.00;5010723;28;20030;-59
2024/01/29 00:06:10;;;;;;;8.32;7.43;;;;;;;6.97;59.19;102392.22;5009923;28;20037;-59
2024/01/29 00:08:36;;;;;;;9.13;7.43;;;;;;;6.98;59.12;102393.94;5010485;28;20108;-59
2024/01/29 00:11:01;;;;;;;8.65;7.30;;;;;;;6.95;59.43;102386.03;5010649;28;20025;-59
2024/01/29 00:13:26;;;;;;;8.73;7.57;;;;;;;6.94;59.16;102394.53;5009699;28;20030;-59
2024/01/29 00:15:51;;;;;;;11.13;7.53;;;;;;;6.94;58.62;102389.00;5010510;28;20030;-59
2024/01/29 00:18:17;;;;;;;9.43;7.20;;;;;;;6.92;59.15;102393.84;5010292;28;20137;-59
2024/01/29 00:20:42;;;;;;;9.20;7.50;;;;;;;6.91;59.06;102392.97;5028047;28;20804;-59
2024/01/29 00:23:07;;;;;;;9.82;7.47;;;;;;;6.92;59.64;102393.84;5093646;28;20023;-59
2024/01/29 00:25:32;;;;;;;10.02;7.63;;;;;;;6.91;59.58;102395.75;5114067;28;20180;-59
2024/01/29 00:27:58;;;;;;;9.07;7.88;;;;;;;6.87;58.62;102387.00;5113145;28;20028;-59
2024/01/29 00:30:23;;;;;;;11.27;8.27;;;;;;;6.88;59.75;102393.41;5113795;28;20030;-59
2024/01/29 00:32:48;;;;;;;8.98;7.47;;;;;;;6.92;59.16;102393.84;5113695;28;20019;-59
2024/01/29 00:35:14;;;;;;;11.43;7.75;;;;;;;6.89;59.84;102395.09;5047587;28;20105;-59
2024/01/29 00:37:39;;;;;;;10.98;7.35;;;;;;;6.92;58.91;102380.03;4991354;28;20724;-59
2024/01/29 00:40:05;;;;;;;12.13;7.93;;;;;;;6.87;59.38;102380.63;5008301;28;20022;-59
2024/01/29 00:42:30;;;;;;;10.32;7.70;;;;;;;6.87;59.93;102378.72;5007118;28;20067;-59
2024/01/29 00:44:56;;;;;;;10.48;7.70;;;;;;;6.86;59.41;102370.63;5008227;28;20029;-59
2024/01/29 00:47:22;;;;;;;10.63;8.10;;;;;;;6.81;59.95;102375.88;5009046;28;20050;-59
2024/01/29 00:49:48;;;;;;;11.70;8.20;;;;;;;6.78;59.67;102370.72;5006543;28;20693;-59
2024/01/29 00:52:13;;;;;;;10.65;7.93;;;;;;;6.77;59.54;102375.41;4992551;28;20031;-58
2024/01/29 00:54:38;;;;;;;10.95;7.75;;;;;;;6.80;59.42;102379.69;4989629;28;20022;-59
2024/01/29 00:57:04;;;;;;;11.80;8.20;;;;;;;6.79;59.97;102375.19;4989664;28;20109;-59
2024/01/29 00:59:29;;;;;;;9.25;7.70;;;;;;;6.82;59.82;102377.59;5011835;28;20104;-59
2024/01/29 01:01:55;;;;;;;9.73;8.07;;;;;;;6.83;60.30;102376.53;5009092;28;20026;-59
2024/01/29 01:04:20;;;;;;;8.60;7.05;;;;;;;6.80;60.11;102382.44;5009010;28;20030;-59
2024/01/29 01:06:46;;;;;;;10.13;7.57;;;;;;;6.80;60.18;102399.00;5010013;28;20034;-59
2024/01/29 01:09:11;;;;;;;11.43;7.88;;;;;;;6.80;59.89;102408.16;5006705;28;20048;-59
2024/01/29 01:11:37;;;;;;;9.50;7.60;;;;;;;6.77;60.48;102413.19;5008968;28;20026;-59
2024/01/29 01:14:02;;;;;;;9.90;7.70;;;;;;;6.75;60.23;102404.22;5010050;28;20022;-59
2024/01/29 01:16:27;;;;;;;9.80;7.68;;;;;;;6.74;60.27;102414.41;5008825;28;20466;-60
2024/01/29 01:18:53;;;;;;;10.88;8.02;;;;;;;6.74;60.43;102402.50;5009965;28;20048;-59
2024/01/29 01:21:19;;;;;;;11.05;7.45;;;;;;;6.76;60.26;102411.44;5008206;28;20022;-60
2024/01/29 01:23:44;;;;;;;9.13;7.20;;;;;;;6.74;60.08;102410.78;5004201;28;20066;-59
2024/01/29 01:26:09;;;;;;;8.70;7.65;;;;;;;6.72;60.07;102410.13;5038271;28;20497;-58
2024/01/29 01:28:38;;;;;;;9.52;7.63;;;;;;;6.69;60.65;102416.03;5010503;28;20045;-59
2024/01/29 01:31:03;;;;;;;9.95;7.95;;;;;;;6.68;60.76;102414.28;5008294;28;20042;-59
2024/01/29 01:33:28;;;;;;;9.95;7.30;;;;;;;6.67;61.04;102412.59;5006702;28;20033;-60
2024/01/29 01:35:54;;;;;;;11.18;7.85;;;;;;;6.64;60.75;102414.69;5008593;28;20038;-59
2024/01/29 01:38:19;;;;;;;8.57;7.50;;;;;;;6.66;60.48;102410.88;5008451;28;20021;-59
2024/01/29 01:40:44;;;;;;;8.93;7.55;;;;;;;6.66;60.73;102414.50;5009982;28;20030;-59
2024/01/29 01:43:18;;;;;;;10.70;8.35;;;;;;;6.63;60.61;102412.97;5009620;28;20113;-59
2024/01/29 01:45:43;;;;;;;12.75;8.18;;;;;;;6.60;61.31;102413.38;5008654;28;21965;-59
2024/01/29 01:48:09;;;;;;;9.25;7.28;;;;;;;6.62;60.26;102416.78;5009545;28;20122;-60
2024/01/29 01:50:34;;;;;;;12.05;8.15;;;;;;;6.60;60.72;102413.38;5004966;28;20025;-59
2024/01/29 01:53:00;;;;;;;9.90;7.70;;;;;;;6.57;60.42;102410.97;4997649;28;20045;-60
2024/01/29 01:55:27;;;;;;;10.43;7.93;;;;;;;6.58;61.17;102415.44;5009988;28;20028;-59
2024/01/29 01:57:53;;;;;;;9.70;7.60;;;;;;;6.56;61.31;102416.66;5028240;28;20025;-59
2024/01/29 02:00:20;;;;;;;11.80;8.15;;;;;;;6.57;60.66;102424.78;5021562;28;20105;-59
2024/01/29 02:02:45;;;;;;;11.60;7.95;;;;;;;6.56;60.82;102416.66;5009133;28;20034;-59
2024/01/29 02:05:10;;;;;;;10.60;8.00;;;;;;;6.59;61.00;102411.63;5008192;28;20033;-59
2024/01/29 02:07:35;;;;;;;9.50;7.97;;;;;;;6.56;60.99;102417.56;5008693;28;20034;-59
2024/01/29 02:10:01;;;;;;;8.70;7.80;;;;;;;6.58;61.02;102412.69;4996395;28;20066;-59
2024/01/29 02:12:26;;;;;;;8.55;7.38;;;;;;;6.55;61.32;102418.56;4988852;28;20018;-59
2024/01/29 02:14:52;;;;;;;9.52;7.90;;;;;;;6.56;61.80;102412.03;5011620;28;20036;-59
2024/01/29 02:17:17;;;;;;;9.00;7.97;;;;;;;6.54;60.79;102405.81;5028789;28;20056;-59
2024/01/29 02:19:42;;;;;;;10.07;7.32;;;;;;;6.55;61.07;102415.81;5027810;28;20021;-59
2024/01/29 02:22:08;;;;;;;9.38;8.02;;;;;;;6.57;61.48;102410.13;5009176;28;20565;-59
2024/01/29 02:24:33;;;;;;;8.40;7.28;;;;;;;6.56;61.80;102412.03;5002975;28;20038;-59
2024/01/29 02:26:58;;;;;;;11.02;8.05;;;;;;;6.53;61.68;102414.31;5064640;28;20027;-59
2024/01/29 02:29:23;;;;;;;9.23;7.45;;;;;;;6.52;61.42;102416.19;5012786;28;20028;-59
2024/01/29 02:31:49;;;;;;;8.80;7.55;;;;;;;6.54;62.15;102411.34;5062601;28;20032;-60
2024/01/29 02:34:14;;;;;;;7.95;6.97;;;;;;;6.53;61.91;102412.41;5062848;28;20109;-59
2024/01/29 02:36:39;;;;;;;8.30;7.25;;;;;;;6.50;61.49;102407.25;5092066;28;20528;-60
2024/01/29 02:39:06;;;;;;;8.63;7.25;;;;;;;6.52;61.95;102409.81;5040599;28;20022;-59
2024/01/29 02:41:32;;;;;;;10.43;7.07;;;;;;;6.50;61.71;102404.50;5021472;28;20031;-59
2024/01/29 02:43:57;;;;;;;10.63;8.00;;;;;;;6.49;62.35;102413.81;5018107;28;20048;-59
2024/01/29 02:46:22;;;;;;;8.93;7.43;;;;;;;6.46;62.18;102424.38;5020620;28;20153;-59
2024/01/29 02:48:48;;;;;;;9.98;7.47;;;;;;;6.46;61.74;102414.19;5094858;28;20059;-59
2024/01/29 02:51:13;;;;;;;10.35;7.68;;;;;;;6.44;62.31;102419.03;5041763;28;20031;-59
2024/01/29 02:53:38;;;;;;;12.68;8.82;;;;;;;6.45;61.74;102409.72;5083399;28;20503;-59
2024/01/29 02:56:04;;;;;;;9.38;8.18;;;;;;;6.46;61.80;102414.19;5070219;28;20031;-59
2024/01/29 02:58:32;;;;;;;12.23;8.73;;;;;;;6.44;62.02;102408.00;5044030;28;20468;-59
2024/01/29 03:00:57;;;;;;;13.45;9.70;;;;;;;6.46;62.15;102414.19;5098267;28;20486;-59
2024/01/29 03:03:23;;;;;;;15.77;9.35;;;;;;;6.47;62.14;102406.78;5001750;28;20215;-59
2024/01/29 03:05:48;;;;;;;11.18;8.55;;;;;;;6.47;62.10;102407.63;5065814;28;20027;-60
2024/01/29 03:08:13;;;;;;;13.85;9.55;;;;;;;6.46;61.96;102405.91;5065911;28;20037;-59
2024/01/29 03:10:39;;;;;;;11.35;8.88;;;;;;;6.45;62.96;102406.97;5095220;28;20070;-59
2024/01/29 03:13:04;;;;;;;12.65;9.15;;;;;;;6.46;62.41;102400.41;5107651;28;20024;-59
2024/01/29 03:15:29;;;;;;;11.38;8.07;;;;;;;6.46;61.98;102408.69;5016064;28;20374;-59
2024/01/29 03:17:54;;;;;;;13.45;8.82;;;;;;;6.42;62.35;102409.25;5010912;28;20434;-59
2024/01/29 03:20:20;;;;;;;11.23;8.15;;;;;;;6.44;62.96;102413.50;5041655;28;20030;-59
2024/01/29 03:22:45;;;;;;;12.10;8.45;;;;;;;6.43;62.84;102403.53;5010289;28;20385;-59
2024/01/29 03:25:11;;;;;;;10.60;8.05;;;;;;;6.45;62.57;102404.22;5011167;28;20079;-59
2024/01/29 03:27:36;;;;;;;10.43;8.30;;;;;;;6.42;62.71;102404.59;5011189;28;20113;-59
2024/01/29 03:30:01;;;;;;;8.98;7.43;;;;;;;6.42;62.75;102410.09;5011338;28;20500;-59
2024/01/29 03:32:27;;;;;;;9.73;7.68;;;;;;;6.40;62.75;102412.16;5011249;28;20034;-59
2024/01/29 03:34:52;;;;;;;9.40;7.28;;;;;;;6.38;62.82;102408.75;5021067;28;20449;-59
2024/01/29 03:37:17;;;;;;;8.75;7.18;;;;;;;6.42;62.52;102409.25;5010000;28;20038;-59
2024/01/29 03:39:43;;;;;;;9.77;7.70;;;;;;;6.39;63.36;102408.56;5011211;28;20095;-59
2024/01/29 03:42:08;;;;;;;8.57;7.60;;;;;;;6.38;63.54;102420.66;5011772;28;20449;-59
2024/01/29 03:44:33;;;;;;;8.38;7.47;;;;;;;6.38;62.55;102411.53;5010068;28;20374;-59
2024/01/29 03:46:58;;;;;;;9.90;7.07;;;;;;;6.36;62.64;102416.34;5012104;28;20053;-60
2024/01/29 03:49:24;;;;;;;8.93;7.25;;;;;;;6.35;63.31;102420.16;5006033;28;20120;-60
2024/01/29 03:51:50;;;;;;;9.75;7.75;;;;;;;6.36;63.32;102413.59;5008512;28;20137;-59
2024/01/29 03:54:15;;;;;;;8.63;7.05;;;;;;;6.36;63.34;102430.13;5006593;28;20112;-59
2024/01/29 03:56:41;;;;;;;8.98;7.35;;;;;;;6.39;63.04;102427.88;5010771;28;20034;-59
2024/01/29 03:59:10;;;;;;;9.00;7.22;;;;;;;6.41;63.21;102430.47;5009497;28;20559;-59
2024/01/29 04:01:36;;;;;;;8.75;7.18;;;;;;;6.37;63.71;102429.13;5010455;28;20029;-59
2024/01/29 04:04:01;;;;;;;9.70;7.57;;;;;;;6.41;63.03;102429.59;5008219;28;20026;-59
2024/01/29 04:06:27;;;;;;;10.15;7.13;;;;;;;6.40;62.85;102420.44;5004926;28;20041;-59
2024/01/29 04:08:52;;;;;;;8.48;6.72;;;;;;;6.38;63.05;102434.44;5002924;28;20664;-59
2024/01/29 04:11:17;;;;;;;10.43;6.97;;;;;;;6.39;63.52;102418.75;5001175;28;20087;-60
2024/01/29 04:13:43;;;;;;;8.65;6.97;;;;;;;6.40;63.56;102423.19;4996742;28;20045;-59
2024/01/29 04:16:10;;;;;;;9.65;6.78;;;;;;;6.33;63.35;102428.63;5003834;28;20030;-59
2024/01/29 04:18:36;;;;;;;7.68;6.88;;;;;;;6.34;63.41;102424.81;5008535;28;20491;-59
2024/01/29 04:21:05;;;;;;;8.95;6.63;;;;;;;6.35;63.73;102423.78;5009722;28;20022;-59
2024/01/29 04:23:30;;;;;;;7.57;6.63;;;;;;;6.32;63.65;102426.03;5013142;28;20384;-59
2024/01/29 04:25:55;;;;;;;8.57;7.15;;;;;;;6.30;63.42;102430.91;5001817;28;20120;-59
2024/01/29 04:28:20;;;;;;;7.65;6.60;;;;;;;6.30;63.76;102422.63;5017912;28;20025;-59
2024/01/29 04:30:46;;;;;;;7.60;6.68;;;;;;;6.32;63.60;102423.28;5011729;28;20476;-59
2024/01/29 04:33:11;;;;;;;10.15;7.38;;;;;;;6.25;63.71;102430.56;5008902;28;20065;-59
2024/01/29 04:35:36;;;;;;;10.35;7.13;;;;;;;6.24;64.03;102437.16;5010259;28;20461;-59
2024/01/29 04:38:02;;;;;;;9.00;6.65;;;;;;;6.21;63.63;102435.63;5008238;28;20121;-59
2024/01/29 04:40:27;;;;;;;9.30;6.72;;;;;;;6.23;64.47;102432.69;5008906;28;20029;-59
2024/01/29 04:42:52;;;;;;;7.20;6.20;;;;;;;6.18;64.20;102430.50;5009461;28;20033;-59
2024/01/29 04:45:18;;;;;;;7.97;7.15;;;;;;;6.16;63.74;102438.06;5006542;28;20499;-59
2024/01/29 04:47:43;;;;;;;8.40;7.15;;;;;;;6.14;64.65;102441.03;5006500;28;20111;-59
2024/01/29 04:50:08;;;;;;;11.00;6.75;;;;;;;6.17;64.02;102438.94;5010195;28;20037;-60
2024/01/29 04:52:34;;;;;;;7.30;6.57;;;;;;;6.11;64.27;102441.38;5013724;28;20071;-59
2024/01/29 04:54:59;;;;;;;9.15;6.93;;;;;;;6.10;64.39;102436.94;5002981;28;20033;-59
2024/01/29 04:57:24;;;;;;;7.70;6.93;;;;;;;6.05;64.73;102435.75;5012610;28;20038;-59
2024/01/29 04:59:50;;;;;;;9.30;6.63;;;;;;;6.08;64.48;102447.25;5007009;28;20025;-59
2024/01/29 05:02:16;;;;;;;7.63;6.38;;;;;;;6.05;64.40;102435.75;5021487;28;20041;-59
2024/01/29 05:04:42;;;;;;;8.77;7.00;;;;;;;6.05;63.94;102430.22;5029666;28;20030;-59
2024/01/29 05:07:07;;;;;;;8.18;6.90;;;;;;;6.04;64.84;102440.41;5029682;28;20480;-59
2024/01/29 05:09:32;;;;;;;8.93;7.00;;;;;;;6.03;64.93;102424.91;5028906;28;20057;-60
2024/01/29 05:11:58;;;;;;;7.32;6.53;;;;;;;6.07;65.07;102431.78;5044568;28;20038;-59
2024/01/29 05:14:27;;;;;;;7.55;6.43;;;;;;;6.06;65.22;102440.25;5047182;28;20030;-59
2024/01/29 05:16:53;;;;;;;7.32;6.60;;;;;;;6.05;64.61;102439.38;4997656;28;20537;-59
2024/01/29 05:19:18;;;;;;;8.15;6.53;;;;;;;5.99;64.82;102437.34;4990464;28;20109;-59
2024/01/29 05:21:44;;;;;;;9.45;6.72;;;;;;;5.97;65.41;102439.41;4997611;28;20359;-59
2024/01/29 05:24:09;;;;;;;9.52;7.07;;;;;;;5.98;65.37;102435.66;5006138;28;20049;-59
2024/01/29 05:26:34;;;;;;;7.90;6.97;;;;;;;5.98;65.41;102440.31;5009454;28;20098;-59
2024/01/29 05:28:59;;;;;;;8.05;7.10;;;;;;;6.01;65.34;102438.03;5008504;28;20036;-59
2024/01/29 05:31:25;;;;;;;8.48;6.47;;;;;;;6.04;65.41;102439.56;5009342;28;20026;-59
2024/01/29 05:33:50;;;;;;;9.18;6.50;;;;;;;6.03;65.14;102438.69;5009367;28;20032;-59
2024/01/29 05:36:15;;;;;;;7.45;6.78;;;;;;;5.99;65.33;102439.25;5015997;28;20388;-59
2024/01/29 05:38:41;;;;;;;9.85;7.53;;;;;;;6.02;65.57;102437.00;5045147;28;20034;-60
2024/01/29 05:41:06;;;;;;;9.02;7.55;;;;;;;6.03;66.15;102433.19;5009111;28;20082;-59
2024/01/29 05:43:31;;;;;;;9.57;7.65;;;;;;;6.06;66.19;102437.47;5008468;28;20033;-59
2024/01/29 05:45:56;;;;;;;8.55;7.00;;;;;;;6.05;66.11;102431.13;5009261;28;20098;-60
2024/01/29 05:48:22;;;;;;;9.80;7.57;;;;;;;6.05;65.71;102433.88;5008492;28;20030;-59
2024/01/29 05:50:47;;;;;;;9.95;7.55;;;;;;;6.06;66.25;102438.34;5000948;28;20026;-59
2024/01/29 05:53:12;;;;;;;10.02;7.68;;;;;;;6.06;65.99;102440.25;5008917;28;20029;-59
2024/01/29 05:55:37;;;;;;;10.43;7.68;;;;;;;6.05;65.86;102442.16;5005844;28;20033;-59
2024/01/29 05:58:03;;;;;;;11.45;7.10;;;;;;;6.06;66.32;102443.84;4997103;28;20018;-59
2024/01/29 06:00:28;;;;;;;9.23;6.95;;;;;;;6.04;66.63;102448.69;5009797;28;20081;-59
2024/01/29 06:02:54;;;;;;;9.35;7.13;;;;;;;6.05;66.46;102453.16;5025279;28;20022;-59
2024/01/29 06:05:19;;;;;;;10.57;7.53;;;;;;;6.08;66.18;102450.03;5010393;28;20022;-59
2024/01/29 06:07:44;;;;;;;9.25;7.47;;;;;;;6.08;66.51;102457.44;5007242;28;20044;-59
2024/01/29 06:10:13;;;;;;;9.35;6.60;;;;;;;6.12;66.08;102453.28;5008889;28;20097;-59
2024/01/29 06:12:38;;;;;;;8.52;7.22;;;;;;;6.07;66.27;102451.06;5007077;28;20030;-59
2024/01/29 06:15:04;;;;;;;8.63;7.55;;;;;;;6.08;66.39;102463.81;5019391;28;20564;-59
2024/01/29 06:17:30;;;;;;;8.50;7.57;;;;;;;6.05;66.67;102455.94;5012807;28;20462;-59
2024/01/29 06:19:55;;;;;;;9.32;7.57;;;;;;;6.08;66.65;102451.94;5007441;28;20062;-59
2024/01/29 06:22:20;;;;;;;11.85;8.30;;;;;;;6.07;66.54;102462.09;5012597;28;20555;-59
2024/01/29 06:24:46;;;;;;;9.60;7.95;;;;;;;6.08;66.59;102463.81;5027513;28;20038;-60
2024/01/29 06:27:11;;;;;;;9.48;7.32;;;;;;;6.06;66.36;102452.13;5004461;28;20030;-60
2024/01/29 06:29:36;;;;;;;9.00;7.32;;;;;;;6.05;67.09;102463.31;4995679;28;20087;-59
2024/01/29 06:32:02;;;;;;;9.73;7.45;;;;;;;6.08;66.49;102465.72;4987127;28;20827;-59
2024/01/29 06:34:27;;;;;;;9.45;7.72;;;;;;;6.10;66.26;102464.50;5000215;28;20030;-59
2024/01/29 06:36:54;;;;;;;12.27;8.45;;;;;;;6.11;66.18;102471.72;4990741;28;20462;-59
2024/01/29 06:39:19;;;;;;;8.90;7.97;;;;;;;6.07;66.40;102467.63;4992014;28;20038;-60
2024/01/29 06:41:44;;;;;;;9.85;7.70;;;;;;;6.08;66.24;102471.22;5011324;28;20519;-59
2024/01/29 06:44:10;;;;;;;9.80;7.53;;;;;;;6.07;67.07;102475.88;5035421;28;20112;-59
2024/01/29 06:46:35;;;;;;;8.90;7.28;;;;;;;6.07;67.02;102470.38;5021013;28;20432;-59
2024/01/29 06:49:00;;;;;;;7.80;6.57;;;;;;;6.07;66.68;102473.13;5026172;28;20034;-59
2024/01/29 06:51:26;;;;;;;8.48;7.03;;;;;;;6.07;67.10;102475.88;5008270;28;20030;-59
2024/01/29 06:53:51;;;;;;;10.50;7.18;;;;;;;6.09;66.48;102472.94;5007191;28;20030;-59
2024/01/29 06:56:16;;;;;;;9.38;7.68;;;;;;;6.10;66.53;102477.44;5003689;28;20058;-59
2024/01/29 06:58:42;;;;;;;13.40;7.43;;;;;;;6.08;67.34;102474.84;4994767;28;20025;-59
2024/01/29 07:01:08;;;;;;;8.95;7.13;;;;;;;6.09;66.92;102487.59;4994862;28;20127;-59
2024/01/29 07:03:33;;;;;;;8.15;6.82;;;;;;;6.09;67.13;102493.13;4993522;28;20042;-59
2024/01/29 07:05:58;;;;;;;8.45;6.88;;;;;;;6.08;66.95;102485.84;4988571;28;20026;-60
2024/01/29 07:08:25;;;;;;;9.35;7.22;;;;;;;6.09;67.00;102497.75;4987989;28;20454;-59
2024/01/29 07:10:51;;;;;;;9.77;7.10;;;;;;;6.08;67.14;102491.38;4988833;28;20057;-59
2024/01/29 07:13:16;;;;;;;7.68;6.88;;;;;;;6.07;66.79;102495.19;5013247;28;20049;-59
2024/01/29 07:15:42;;;;;;;8.80;7.38;;;;;;;6.08;67.27;102507.91;5005187;28;20082;-59
2024/01/29 07:18:08;;;;;;;8.25;7.05;;;;;;;6.10;66.87;102503.09;4996478;28;20592;-59
2024/01/29 07:20:39;;;;;;;9.25;6.93;;;;;;;6.10;67.27;102511.34;4988208;28;20057;-59
2024/01/29 07:23:05;;;;;;;7.60;6.80;;;;;;;6.09;67.46;102515.16;4987786;28;20038;-59
2024/01/29 07:25:31;;;;;;;8.75;7.60;;;;;;;6.08;67.14;102526.34;4993705;28;20038;-59
2024/01/29 07:27:59;;;;;;;10.82;6.78;;;;;;;6.05;67.04;102519.31;5007255;28;20038;-59
2024/01/29 07:30:25;;;;;;;6.85;6.25;;;;;;;6.08;66.76;102516.19;5007510;28;20109;-59
2024/01/29 07:32:50;;;;;;;10.52;7.30;;;;;;;6.08;67.43;102523.59;5003584;28;20474;-58
2024/01/29 07:35:16;;;;;;;8.23;6.85;;;;;;;6.09;67.35;102523.44;5026719;28;20042;-59
2024/01/29 07:37:41;;;;;;;7.85;6.45;;;;;;;6.10;66.96;102527.91;5005040;28;20038;-58
2024/01/29 07:40:08;;;;;;;9.80;7.05;;;;;;;6.11;67.17;102523.25;5013816;28;20041;-59
2024/01/29 07:42:33;;;;;;;8.57;6.93;;;;;;;6.11;66.90;102521.34;5026698;28;20062;-59
2024/01/29 07:44:59;;;;;;;8.50;7.00;;;;;;;6.12;67.37;102523.03;5027356;28;20103;-58
2024/01/29 07:47:24;;;;;;;11.80;6.93;;;;;;;6.14;67.86;102523.72;5027368;28;20045;-59
2024/01/29 07:49:49;;;;;;;7.72;6.93;;;;;;;6.17;67.18;102532.66;5105230;28;20024;-59
2024/01/29 07:52:15;;;;;;;9.75;7.13;;;;;;;6.17;67.84;102528.03;5069825;28;20461;-58
2024/01/29 07:54:40;;;;;;;7.82;7.03;;;;;;;6.17;67.28;102529.91;5010597;28;20179;-59
2024/01/29 07:57:05;;;;;;;8.15;6.75;;;;;;;6.15;67.66;102536.47;5010259;28;20045;-58
2024/01/29 07:59:32;;;;;;;9.55;7.70;;;;;;;6.20;67.94;102532.31;5008940;28;20030;-59
2024/01/29 08:01:57;;;;;;;8.25;7.07;;;;;;;6.21;67.13;102534.00;5003930;28;20374;-59
2024/01/29 08:04:22;;;;;;;9.70;7.65;;;;;;;6.21;67.63;102537.66;5009630;28;20036;-60
2024/01/29 08:06:47;;;;;;;10.10;7.57;;;;;;;6.24;67.51;102540.03;5003615;28;20053;-59
2024/01/29 08:09:13;;;;;;;9.90;6.95;;;;;;;6.26;67.61;102542.63;4996479;28;20218;-59
2024/01/29 08:11:39;;;;;;;10.63;8.05;;;;;;;6.28;67.57;102538.63;5021567;28;20033;-59
2024/01/29 08:14:04;;;;;;;10.13;7.30;;;;;;;6.31;68.15;102532.75;5018760;28;20111;-60
2024/01/29 08:16:30;;;;;;;7.82;6.80;;;;;;;6.32;68.37;102530.84;5000662;28;20034;-60
2024/01/29 08:18:56;;;;;;;10.27;7.40;;;;;;;6.34;68.25;102539.78;4996309;28;20029;-61
2024/01/29 08:21:22;;;;;;;8.88;7.57;;;;;;;6.32;67.72;102548.22;4996929;28;20366;-60
2024/01/29 08:23:47;;;;;;;9.60;7.72;;;;;;;6.37;67.77;102553.22;5007521;28;20030;-61
2024/01/29 08:26:12;;;;;;;9.15;7.72;;;;;;;6.41;67.63;102546.28;5005334;28;20038;-60
2024/01/29 08:28:38;;;;;;;9.40;7.35;;;;;;;6.43;67.99;102546.97;5007298;28;20041;-59
2024/01/29 08:31:03;;;;;;;8.88;7.15;;;;;;;6.46;67.89;102543.84;5007577;28;20393;-59
2024/01/29 08:33:29;;;;;;;9.30;7.72;;;;;;;6.47;67.64;102551.06;5004017;28;20056;-59
2024/01/29 08:35:55;;;;;;;9.48;7.97;;;;;;;6.47;68.74;102544.69;4995848;28;20097;-60
2024/01/29 08:38:20;;;;;;;8.45;7.60;;;;;;;6.50;67.85;102544.31;5005404;28;20160;-59
2024/01/29 08:40:46;;;;;;;10.77;7.65;;;;;;;6.51;68.46;102541.38;5007495;28;20525;-60
2024/01/29 08:43:11;;;;;;;7.80;6.97;;;;;;;6.54;67.75;102545.66;4989741;28;20022;-60
2024/01/29 08:45:37;;;;;;;8.85;7.93;;;;;;;6.54;67.92;102541.00;4989327;28;20046;-60
2024/01/29 08:48:06;;;;;;;10.40;7.65;;;;;;;6.57;68.44;102539.78;5005454;28;20034;-59
2024/01/29 08:50:32;;;;;;;9.63;7.85;;;;;;;6.58;68.61;102547.00;5009704;28;20079;-61
2024/01/29 08:52:58;;;;;;;8.82;7.18;;;;;;;6.57;68.51;102540.66;5008645;28;20033;-59
2024/01/29 08:55:23;;;;;;;9.25;7.60;;;;;;;6.59;68.41;102551.47;5009385;28;20034;-60
2024/01/29 08:57:49;;;;;;;9.38;7.47;;;;;;;6.59;68.49;102545.97;5006596;28;20045;-59
2024/01/29 09:00:15;;;;;;;9.35;7.80;;;;;;;6.56;68.15;102549.97;5002788;28;20105;-60
2024/01/29 09:02:41;;;;;;;8.77;7.13;;;;;;;6.54;68.91;102546.53;4989557;28;20091;-60
2024/01/29 09:05:07;;;;;;;11.55;7.95;;;;;;;6.59;68.22;102549.56;4996887;28;20028;-59
2024/01/29 09:07:32;;;;;;;8.88;7.03;;;;;;;6.60;67.93;102543.03;5012075;28;20094;-59
2024/01/29 09:09:58;;;;;;;8.30;7.25;;;;;;;6.63;68.90;102548.16;5009287;28;20120;-60
2024/01/29 09:12:23;;;;;;;9.23;7.72;;;;;;;6.64;67.98;102540.72;5008138;28;20029;-59
2024/01/29 09:14:48;;;;;;;11.30;8.50;;;;;;;6.69;68.31;102541.06;5000337;28;20030;-61
2024/01/29 09:17:13;;;;;;;10.18;7.57;;;;;;;6.71;68.55;102538.09;4989263;28;20038;-60
2024/01/29 09:19:39;;;;;;;9.25;8.00;;;;;;;6.71;68.57;102527.06;4989576;28;20087;-60
2024/01/29 09:22:04;;;;;;;8.18;7.35;;;;;;;6.71;68.60;102530.69;4988665;28;20030;-59
2024/01/29 09:24:29;;;;;;;11.75;8.27;;;;;;;6.70;68.45;102537.25;4995875;28;20034;-59
2024/01/29 09:26:55;;;;;;;9.70;8.18;;;;;;;6.72;68.81;102539.81;5020153;28;20039;-59
2024/01/29 09:29:20;;;;;;;12.13;8.13;;;;;;;6.74;69.16;102535.81;5057571;28;20026;-59
2024/01/29 09:31:45;;;;;;;11.50;8.30;;;;;;;6.75;68.89;102543.06;5000102;28;20028;-59
2024/01/29 09:34:11;;;;;;;11.43;7.82;;;;;;;6.79;68.61;102538.03;5008106;28;20022;-58
2024/01/29 09:36:36;;;;;;;10.40;7.55;;;;;;;6.82;68.98;102543.19;5008598;28;20041;-58
2024/01/29 09:39:01;;;;;;;11.82;8.65;;;;;;;6.85;68.95;102548.34;5007890;28;20179;-58
2024/01/29 09:41:33;;;;;;;10.88;7.88;;;;;;;6.90;68.89;102559.66;5008864;28;20029;-59
2024/01/29 09:44:04;;;;;;;10.00;7.72;;;;;;;6.95;69.07;102554.41;5009663;28;20029;-59
2024/01/29 09:46:30;;;;;;;9.63;7.85;;;;;;;7.03;69.15;102562.63;5008153;28;20054;-59
2024/01/29 09:48:55;;;;;;;9.57;7.90;;;;;;;7.11;69.36;102562.56;5007241;28;20122;-59
2024/01/29 09:51:23;;;;;;;9.63;7.50;;;;;;;7.23;69.84;102562.97;5008192;28;20620;-58
2024/01/29 09:53:50;;;;;;;9.27;8.13;;;;;;;7.36;68.68;102554.00;5008558;28;20030;-59
2024/01/29 09:56:15;;;;;;;9.52;7.95;;;;;;;7.50;68.86;102558.66;5007516;28;20485;-59
2024/01/29 09:58:41;;;;;;;10.63;7.60;;;;;;;7.63;68.75;102569.06;5009579;28;20032;-59
2024/01/29 10:01:09;;;;;;;9.45;7.72;;;;;;;7.77;68.13;102570.06;5021623;28;20026;-58
2024/01/29 10:03:38;;;;;;;10.57;8.07;;;;;;;7.89;67.96;102565.75;5032425;28;20029;-58
2024/01/29 10:06:03;;;;;;;9.80;8.20;;;;;;;7.98;67.66;102566.53;5007461;28;20042;-59
2024/01/29 10:08:30;;;;;;;10.40;7.53;;;;;;;8.10;67.77;102565.81;5008412;28;20461;-59
2024/01/29 10:10:58;;;;;;;10.85;8.13;;;;;;;8.21;67.66;102569.13;5004128;28;20469;-59
2024/01/29 10:13:23;;;;;;;9.15;7.75;;;;;;;8.34;66.86;102574.81;5007939;28;20098;-58
2024/01/29 10:15:50;;;;;;;10.73;8.75;;;;;;;8.47;67.11;102572.22;5006968;28;20510;-58
2024/01/29 10:18:16;;;;;;;10.32;8.10;;;;;;;8.58;65.93;102577.22;4991114;28;20083;-58
2024/01/29 10:20:41;;;;;;;9.73;7.80;;;;;;;8.69;66.49;102580.53;5005073;28;20074;-58
2024/01/29 10:23:06;;;;;;;9.82;8.15;;;;;;;8.81;65.78;102574.25;5007718;28;20037;-57
2024/01/29 10:25:34;;;;;;;10.23;8.50;;;;;;;8.94;66.07;102580.94;5007602;28;20067;-58
2024/01/29 10:28:10;;;;;;;12.90;8.60;;;;;;;9.04;65.35;102582.31;5008338;28;20030;-58
2024/01/29 10:30:35;;;;;;;10.15;8.02;;;;;;;9.09;65.23;102590.88;5007966;28;20034;-58
2024/01/29 10:33:01;;;;;;;10.82;8.70;;;;;;;9.20;65.02;102589.47;5002462;28;20022;-58
2024/01/29 10:35:26;;;;;;;12.00;8.32;;;;;;;9.27;65.05;102586.75;5003351;28;20086;-58
2024/01/29 10:37:55;;;;;;;11.40;8.00;;;;;;;9.35;64.85;102586.59;4995735;28;20025;-58
2024/01/29 10:40:24;;;;;;;10.30;8.40;;;;;;;9.44;64.56;102585.38;5007636;28;20481;-58
2024/01/29 10:42:50;;;;;;;10.57;8.10;;;;;;;9.53;64.24;102589.69;5007934;28;20478;-59
2024/01/29 10:45:19;;;;;;;9.98;8.13;;;;;;;9.59;64.47;102591.66;5006467;28;20080;-59
2024/01/29 10:47:49;;;;;;;11.90;8.27;;;;;;;9.67;63.95;102585.09;5007412;28;20088;-59
2024/01/29 10:50:18;;;;;;;9.98;8.32;;;;;;;9.72;64.13;102587.25;5007905;28;20033;-59
2024/01/29 10:52:47;;;;;;;8.95;8.05;;;;;;;9.77;63.88;102587.47;5014100;28;20041;-59
2024/01/29 10:55:15;;;;;;;11.57;8.32;;;;;;;9.83;64.38;102586.69;5003356;28;20061;-59
2024/01/29 10:57:45;;;;;;;10.25;9.02;;;;;;;9.88;64.40;102583.28;5007294;28;20030;-59
2024/01/29 11:00:11;;;;;;;12.23;9.30;;;;;;;9.93;64.22;102578.81;5006356;28;20026;-60
2024/01/29 11:02:37;;;;;;;12.65;8.77;;;;;;;10.00;63.49;102585.25;5007928;28;20022;-59
2024/01/29 11:05:08;;;;;;;9.10;8.18;;;;;;;10.06;64.36;102589.09;5007327;28;20070;-59
2024/01/29 11:07:35;;;;;;;10.48;8.05;;;;;;;10.13;64.25;102578.03;5006486;28;20857;-59
2024/01/29 11:10:21;;;;;;;10.75;8.45;;;;;;;10.18;64.33;102578.25;5022011;28;20032;-58
2024/01/29 11:12:48;;;;;;;12.55;9.10;;;;;;;10.19;64.04;102575.28;5004577;28;20069;-59
2024/01/29 11:15:14;;;;;;;10.65;8.73;;;;;;;10.26;64.11;102567.03;4990475;28;20846;-59
2024/01/29 11:17:41;;;;;;;9.82;8.57;;;;;;;10.31;63.98;102581.13;5002662;28;20030;-60
2024/01/29 11:20:12;;;;;;;10.48;8.95;;;;;;;10.36;64.11;102584.13;5006195;28;20532;-59
2024/01/29 11:22:38;;;;;;;10.23;8.82;;;;;;;10.37;64.03;102574.72;5009016;28;20082;-60